createdAt,value
2018-03-25T00:00:03.680Z,47.40
2018-03-25T00:01:03.641Z,52.40
2018-03-25T00:02:03.577Z,59.80
2018-03-25T00:03:03.570Z,54.50
2018-03-25T00:04:03.509Z,58.90
2018-03-25T00:05:03.513Z,66.60
2018-03-25T00:06:03.452Z,54.90
2018-03-25T00:07:03.359Z,57.30
2018-03-25T00:08:03.286Z,59.80
2018-03-25T00:09:03.243Z,58.20
2018-03-25T00:10:03.227Z,59.70
2018-03-25T00:11:03.158Z,61.50
2018-03-25T00:12:03.104Z,61.80
2018-03-25T00:13:03.093Z,59.80
2018-03-25T00:14:03.029Z,61.90
2018-03-25T00:15:02.995Z,58.40
2018-03-25T00:16:02.959Z,55.30
2018-03-25T00:17:02.906Z,52.70
2018-03-25T00:18:02.844Z,53.20
2018-03-25T00:19:02.826Z,47.30
2018-03-25T00:20:02.729Z,42.60
2018-03-25T00:21:02.725Z,42.80
2018-03-25T00:22:02.628Z,44.90
2018-03-25T00:23:02.605Z,45.40
2018-03-25T00:24:02.558Z,50.40
2018-03-25T00:25:02.534Z,55.60
2018-03-25T00:26:02.471Z,63.90
2018-03-25T00:27:02.439Z,63.20
2018-03-25T00:28:02.384Z,59.10
2018-03-25T00:29:02.355Z,80.80
2018-03-25T00:30:02.285Z,91.00
2018-03-25T00:31:02.253Z,78.80
2018-03-25T00:32:02.215Z,61.90
2018-03-25T00:33:02.131Z,58.60
2018-03-25T00:34:02.098Z,59.30
2018-03-25T00:35:02.022Z,43.50
2018-03-25T00:36:01.983Z,41.70
2018-03-25T00:37:01.956Z,45.40
2018-03-25T00:38:01.917Z,45.10
2018-03-25T00:39:01.899Z,44.20
2018-03-25T00:40:01.818Z,41.50
2018-03-25T00:41:01.786Z,39.00
2018-03-25T00:42:01.717Z,40.20
2018-03-25T00:43:01.687Z,39.70
2018-03-25T00:44:02.328Z,42.10
2018-03-25T00:45:01.576Z,42.00
2018-03-25T00:46:01.555Z,42.80
2018-03-25T00:47:01.472Z,40.90
2018-03-25T00:48:01.480Z,40.70
2018-03-25T00:49:01.397Z,42.70
2018-03-25T00:50:01.405Z,44.40
2018-03-25T00:51:01.299Z,43.00
2018-03-25T00:52:01.290Z,40.40
2018-03-25T00:53:01.835Z,40.90
2018-03-25T00:54:01.178Z,41.60
2018-03-25T00:55:01.116Z,41.90
2018-03-25T00:56:01.086Z,40.50
2018-03-25T00:57:01.829Z,44.90
2018-03-25T00:58:00.964Z,53.90
2018-03-25T00:59:00.950Z,44.70
2018-03-25T01:00:00.854Z,46.90
2018-03-25T01:01:00.839Z,47.60
2018-03-25T01:02:00.796Z,43.70
2018-03-25T01:03:00.723Z,44.00
2018-03-25T01:04:00.737Z,43.50
2018-03-25T01:05:00.661Z,52.10
2018-03-25T01:06:00.607Z,38.30
2018-03-25T01:07:00.556Z,38.70
2018-03-25T01:08:00.498Z,39.50
2018-03-25T01:09:00.472Z,41.00
2018-03-25T01:10:00.453Z,36.20
2018-03-25T01:11:01.330Z,37.30
2018-03-25T01:12:00.327Z,39.60
2018-03-25T01:13:00.287Z,39.00
2018-03-25T01:14:00.214Z,36.40
2018-03-25T01:15:00.200Z,34.80
2018-03-25T01:16:00.133Z,36.20
2018-03-25T01:17:00.104Z,37.20
2018-03-25T01:18:00.039Z,38.90
2018-03-25T01:19:00.009Z,38.00
2018-03-25T01:19:59.929Z,39.60
2018-03-25T01:20:59.974Z,40.30
2018-03-25T01:21:59.863Z,37.80
2018-03-25T01:22:59.823Z,40.30
2018-03-25T01:23:59.793Z,39.10
2018-03-25T01:24:59.706Z,39.10
2018-03-25T01:25:59.663Z,38.30
2018-03-25T01:26:59.639Z,42.40
2018-03-25T01:27:59.557Z,41.40
2018-03-25T01:28:59.542Z,40.10
2018-03-25T01:29:59.490Z,39.90
2018-03-25T01:30:59.474Z,40.70
2018-03-25T01:31:59.389Z,38.20
2018-03-25T01:32:59.421Z,37.10
2018-03-25T01:33:59.292Z,37.70
2018-03-25T01:34:59.241Z,38.80
2018-03-25T01:35:59.191Z,36.40
2018-03-25T01:36:59.150Z,37.00
2018-03-25T01:37:59.107Z,39.10
2018-03-25T01:38:59.090Z,38.80
2018-03-25T01:39:59.835Z,40.70
2018-03-25T01:40:58.963Z,37.30
2018-03-25T01:41:58.889Z,39.10
2018-03-25T01:42:58.910Z,40.10
2018-03-25T01:43:58.814Z,39.90
2018-03-25T01:44:58.835Z,37.10
2018-03-25T01:45:58.726Z,35.70
2018-03-25T01:46:58.693Z,38.70
2018-03-25T01:47:58.624Z,40.10
2018-03-25T01:48:58.644Z,37.10
2018-03-25T01:49:58.572Z,38.10
2018-03-25T01:50:58.494Z,38.40
2018-03-25T01:51:58.439Z,37.90
2018-03-25T01:52:58.412Z,39.40
2018-03-25T01:53:58.351Z,37.10
2018-03-25T01:54:58.303Z,37.00
2018-03-25T01:55:58.335Z,36.60
2018-03-25T01:56:58.218Z,38.80
2018-03-25T01:57:58.180Z,37.40
2018-03-25T01:58:58.110Z,37.60
2018-03-25T01:59:58.116Z,37.60
2018-03-25T02:00:58.041Z,38.20
2018-03-25T02:01:57.969Z,35.20
2018-03-25T02:02:57.913Z,35.30
2018-03-25T02:03:57.918Z,35.60
2018-03-25T02:04:57.829Z,36.50
2018-03-25T02:05:57.815Z,36.70
2018-03-25T02:06:57.722Z,38.00
2018-03-25T02:07:58.336Z,39.10
2018-03-25T02:08:57.683Z,37.90
2018-03-25T02:09:57.601Z,38.60
2018-03-25T02:10:57.551Z,37.30
2018-03-25T02:11:57.506Z,37.10
2018-03-25T02:12:57.478Z,38.30
2018-03-25T02:13:57.419Z,35.20
2018-03-25T02:14:57.493Z,34.90
2018-03-25T02:15:57.310Z,35.70
2018-03-25T02:16:57.313Z,37.90
2018-03-25T02:17:57.222Z,37.70
2018-03-25T02:18:57.160Z,36.70
2018-03-25T02:19:57.133Z,33.90
2018-03-25T02:20:57.069Z,36.00
2018-03-25T02:21:57.014Z,38.50
2018-03-25T02:22:56.978Z,36.20
2018-03-25T02:23:56.945Z,37.20
2018-03-25T02:24:56.912Z,39.40
2018-03-25T02:25:56.829Z,37.70
2018-03-25T02:26:56.842Z,37.00
2018-03-25T02:27:56.796Z,36.80
2018-03-25T02:28:56.710Z,39.20
2018-03-25T02:29:56.679Z,37.80
2018-03-25T02:30:56.624Z,37.90
2018-03-25T02:31:56.556Z,37.20
2018-03-25T02:32:56.631Z,37.80
2018-03-25T02:33:56.484Z,36.70
2018-03-25T02:34:56.421Z,36.00
2018-03-25T02:35:56.364Z,34.90
2018-03-25T02:36:56.331Z,35.30
2018-03-25T02:37:56.318Z,34.80
2018-03-25T02:38:56.226Z,36.40
2018-03-25T02:39:56.190Z,36.30
2018-03-25T02:40:56.153Z,36.20
2018-03-25T02:41:56.104Z,35.90
2018-03-25T02:42:56.046Z,35.80
2018-03-25T02:43:56.062Z,37.30
2018-03-25T02:44:55.944Z,36.20
2018-03-25T02:45:55.963Z,36.50
2018-03-25T02:46:56.018Z,37.00
2018-03-25T02:47:55.829Z,36.10
2018-03-25T02:48:55.769Z,34.90
2018-03-25T02:49:56.358Z,35.10
2018-03-25T02:50:55.676Z,37.00
2018-03-25T02:51:55.638Z,37.00
2018-03-25T02:52:55.585Z,37.80
2018-03-25T02:53:55.551Z,35.70
2018-03-25T02:54:55.463Z,38.10
2018-03-25T02:55:55.446Z,36.90
2018-03-25T02:56:55.392Z,37.30
2018-03-25T02:57:55.334Z,37.30
2018-03-25T02:58:55.295Z,36.10
2018-03-25T02:59:55.270Z,36.00
2018-03-25T03:00:55.198Z,34.90
2018-03-25T03:01:55.156Z,36.10
2018-03-25T03:02:55.152Z,37.30
2018-03-25T03:03:55.086Z,36.60
2018-03-25T03:04:55.020Z,34.80
2018-03-25T03:05:54.989Z,34.00
2018-03-25T03:06:54.914Z,35.50
2018-03-25T03:07:54.877Z,35.20
2018-03-25T03:08:54.833Z,39.00
2018-03-25T03:09:54.769Z,37.10
2018-03-25T03:10:54.755Z,37.60
2018-03-25T03:11:54.692Z,37.40
2018-03-25T03:12:54.615Z,34.80
2018-03-25T03:13:54.599Z,33.50
2018-03-25T03:14:54.538Z,34.00
2018-03-25T03:15:54.494Z,37.40
2018-03-25T03:16:54.425Z,39.40
2018-03-25T03:17:54.397Z,38.40
2018-03-25T03:18:54.360Z,37.20
2018-03-25T03:19:54.294Z,37.60
2018-03-25T03:20:54.263Z,40.10
2018-03-25T03:21:54.184Z,38.70
2018-03-25T03:22:54.162Z,37.10
2018-03-25T03:23:54.119Z,38.50
2018-03-25T03:24:54.061Z,39.40
2018-03-25T03:25:54.013Z,37.90
2018-03-25T03:26:53.997Z,36.20
2018-03-25T03:27:53.948Z,37.50
2018-03-25T03:28:53.874Z,37.40
2018-03-25T03:29:53.870Z,37.90
2018-03-25T03:30:53.794Z,37.10
2018-03-25T03:31:53.724Z,37.10
2018-03-25T03:32:53.678Z,38.60
2018-03-25T03:33:53.662Z,37.00
2018-03-25T03:34:53.619Z,37.80
2018-03-25T03:35:53.562Z,37.40
2018-03-25T03:36:53.520Z,37.20
2018-03-25T03:37:53.450Z,36.20
2018-03-25T03:38:53.397Z,36.30
2018-03-25T03:39:53.353Z,38.30
2018-03-25T03:40:53.318Z,38.00
2018-03-25T03:41:53.258Z,39.50
2018-03-25T03:42:53.211Z,39.00
2018-03-25T03:43:53.233Z,38.40
2018-03-25T03:44:53.103Z,37.00
2018-03-25T03:45:53.114Z,37.60
2018-03-25T03:46:53.034Z,36.70
2018-03-25T03:47:52.978Z,37.60
2018-03-25T03:48:52.931Z,40.00
2018-03-25T03:49:52.860Z,39.30
2018-03-25T03:50:52.834Z,38.20
2018-03-25T03:51:52.783Z,38.00
2018-03-25T03:52:52.733Z,39.80
2018-03-25T03:53:52.703Z,38.10
2018-03-25T03:54:52.652Z,39.80
2018-03-25T03:55:52.578Z,38.40
2018-03-25T03:56:52.557Z,39.50
2018-03-25T03:57:52.482Z,37.00
2018-03-25T03:58:52.486Z,38.80
2018-03-25T03:59:52.450Z,38.00
2018-03-25T04:00:52.843Z,38.70
2018-03-25T04:01:52.295Z,37.10
2018-03-25T04:02:52.246Z,35.40
2018-03-25T04:03:52.251Z,38.00
2018-03-25T04:04:52.179Z,38.00
2018-03-25T04:05:52.119Z,39.90
2018-03-25T04:06:52.093Z,40.00
2018-03-25T04:07:52.047Z,39.40
2018-03-25T04:08:51.987Z,40.10
2018-03-25T04:09:51.931Z,39.80
2018-03-25T04:10:51.870Z,42.40
2018-03-25T04:11:51.827Z,39.60
2018-03-25T04:12:51.774Z,38.80
2018-03-25T04:13:51.729Z,37.50
2018-03-25T04:14:51.712Z,38.10
2018-03-25T04:15:51.644Z,36.40
2018-03-25T04:16:51.602Z,37.10
2018-03-25T04:17:51.602Z,36.30
2018-03-25T04:18:51.490Z,36.20
2018-03-25T04:19:51.439Z,38.70
2018-03-25T04:20:51.435Z,38.90
2018-03-25T04:21:51.358Z,38.80
2018-03-25T04:22:51.329Z,38.60
2018-03-25T04:23:51.258Z,39.10
2018-03-25T04:24:51.226Z,41.00
2018-03-25T04:25:51.151Z,38.20
2018-03-25T04:26:51.118Z,38.90
2018-03-25T04:27:51.055Z,39.30
2018-03-25T04:28:51.030Z,40.60
2018-03-25T04:29:51.006Z,39.00
2018-03-25T04:30:50.940Z,40.40
2018-03-25T04:31:50.928Z,39.10
2018-03-25T04:32:50.839Z,41.40
2018-03-25T04:33:50.806Z,39.80
2018-03-25T04:34:50.721Z,36.50
2018-03-25T04:35:50.717Z,36.60
2018-03-25T04:36:50.644Z,38.50
2018-03-25T04:37:50.607Z,38.60
2018-03-25T04:38:50.549Z,38.80
2018-03-25T04:39:50.499Z,41.30
2018-03-25T04:40:50.474Z,41.10
2018-03-25T04:41:50.404Z,42.70
2018-03-25T04:42:50.372Z,40.10
2018-03-25T04:43:50.307Z,39.40
2018-03-25T04:44:50.244Z,40.70
2018-03-25T04:45:50.218Z,38.40
2018-03-25T04:46:50.160Z,38.00
2018-03-25T04:47:50.168Z,39.00
2018-03-25T04:48:50.126Z,41.70
2018-03-25T04:49:50.025Z,41.00
2018-03-25T04:50:49.990Z,40.40
2018-03-25T04:51:49.909Z,39.90
2018-03-25T04:52:49.935Z,39.80
2018-03-25T04:53:49.824Z,42.10
2018-03-25T04:54:49.800Z,42.40
2018-03-25T04:55:49.724Z,43.80
2018-03-25T04:56:49.716Z,45.50
2018-03-25T04:57:49.632Z,44.60
2018-03-25T04:58:49.593Z,46.10
2018-03-25T04:59:49.573Z,43.60
2018-03-25T05:00:49.485Z,43.20
2018-03-25T05:01:49.489Z,44.80
2018-03-25T05:02:49.398Z,43.30
2018-03-25T05:03:49.363Z,42.10
2018-03-25T05:04:49.308Z,45.50
2018-03-25T05:05:49.253Z,44.00
2018-03-25T05:06:49.210Z,43.00
2018-03-25T05:07:49.176Z,50.40
2018-03-25T05:08:49.104Z,51.20
2018-03-25T05:09:49.096Z,47.90
2018-03-25T05:10:49.014Z,43.20
2018-03-25T05:11:48.967Z,44.40
2018-03-25T05:12:48.914Z,42.00
2018-03-25T05:13:48.886Z,41.00
2018-03-25T05:14:48.830Z,38.20
2018-03-25T05:15:48.777Z,40.00
2018-03-25T05:16:48.746Z,41.20
2018-03-25T05:17:48.691Z,39.60
2018-03-25T05:18:48.643Z,39.10
2018-03-25T05:19:48.623Z,39.90
2018-03-25T05:20:48.579Z,39.80
2018-03-25T05:21:48.607Z,39.00
2018-03-25T05:22:48.468Z,39.80
2018-03-25T05:23:48.405Z,40.50
2018-03-25T05:24:48.377Z,40.20
2018-03-25T05:25:48.311Z,40.90
2018-03-25T05:26:48.262Z,38.90
2018-03-25T05:27:48.194Z,37.10
2018-03-25T05:28:48.172Z,40.10
2018-03-25T05:29:48.111Z,39.80
2018-03-25T05:30:48.079Z,45.60
2018-03-25T05:31:48.046Z,43.80
2018-03-25T05:32:48.003Z,45.00
2018-03-25T05:33:47.927Z,42.50
2018-03-25T05:34:47.877Z,42.10
2018-03-25T05:35:47.836Z,43.00
2018-03-25T05:36:47.783Z,38.50
2018-03-25T05:37:47.740Z,41.30
2018-03-25T05:38:47.685Z,40.30
2018-03-25T05:39:47.667Z,39.90
2018-03-25T05:40:47.588Z,41.30
2018-03-25T05:41:47.548Z,40.50
2018-03-25T05:42:47.526Z,40.30
2018-03-25T05:43:47.447Z,40.20
2018-03-25T05:44:47.401Z,42.80
2018-03-25T05:45:47.384Z,43.00
2018-03-25T05:46:47.316Z,50.70
2018-03-25T05:47:47.282Z,50.40
2018-03-25T05:48:47.230Z,52.90
2018-03-25T05:49:47.159Z,44.00
2018-03-25T05:50:47.116Z,43.70
2018-03-25T05:51:47.057Z,41.00
2018-03-25T05:52:47.014Z,38.70
2018-03-25T05:53:46.981Z,39.60
2018-03-25T05:54:46.931Z,39.90
2018-03-25T05:55:46.884Z,40.50
2018-03-25T05:56:46.842Z,41.50
2018-03-25T05:57:46.803Z,41.70
2018-03-25T05:58:46.776Z,40.60
2018-03-25T05:59:46.759Z,39.50
2018-03-25T06:00:46.704Z,38.90
2018-03-25T06:01:46.598Z,39.10
2018-03-25T06:02:46.576Z,40.50
2018-03-25T06:03:46.531Z,38.70
2018-03-25T06:04:46.468Z,41.00
2018-03-25T06:05:46.436Z,38.30
2018-03-25T06:06:46.384Z,39.40
2018-03-25T06:07:46.331Z,39.00
2018-03-25T06:08:46.261Z,36.70
2018-03-25T06:09:46.239Z,36.90
2018-03-25T06:10:46.200Z,38.70
2018-03-25T06:11:46.169Z,39.20
2018-03-25T06:12:46.126Z,37.20
2018-03-25T06:13:46.040Z,38.70
2018-03-25T06:14:45.999Z,38.80
2018-03-25T06:15:45.978Z,38.10
2018-03-25T06:16:45.903Z,38.70
2018-03-25T06:17:45.852Z,39.30
2018-03-25T06:18:45.811Z,36.70
2018-03-25T06:19:45.776Z,38.40
2018-03-25T06:20:45.726Z,40.40
2018-03-25T06:21:45.710Z,40.10
2018-03-25T06:22:45.632Z,37.40
2018-03-25T06:23:45.585Z,37.90
2018-03-25T06:24:45.603Z,37.20
2018-03-25T06:25:45.500Z,36.80
2018-03-25T06:26:45.449Z,35.20
2018-03-25T06:27:45.418Z,36.40
2018-03-25T06:28:45.373Z,35.60
2018-03-25T06:29:45.319Z,36.10
2018-03-25T06:30:45.276Z,38.20
2018-03-25T06:31:45.232Z,37.70
2018-03-25T06:32:45.205Z,38.00
2018-03-25T06:33:45.148Z,36.50
2018-03-25T06:34:45.100Z,38.10
2018-03-25T06:35:45.050Z,36.50
2018-03-25T06:36:45.030Z,35.30
2018-03-25T06:37:44.963Z,36.20
2018-03-25T06:38:44.916Z,35.40
2018-03-25T06:39:44.878Z,38.20
2018-03-25T06:40:44.837Z,36.50
2018-03-25T06:41:44.793Z,35.50
2018-03-25T06:42:44.743Z,36.30
2018-03-25T06:43:44.717Z,35.00
2018-03-25T06:44:44.648Z,34.10
2018-03-25T06:45:44.618Z,36.30
2018-03-25T06:46:44.570Z,36.30
2018-03-25T06:47:44.529Z,35.20
2018-03-25T06:48:44.481Z,34.60
2018-03-25T06:49:45.356Z,34.20
2018-03-25T06:50:44.390Z,33.80
2018-03-25T06:51:44.384Z,33.30
2018-03-25T06:52:44.306Z,33.30
2018-03-25T06:53:44.262Z,33.10
2018-03-25T06:54:44.857Z,34.20
2018-03-25T06:55:44.177Z,32.60
2018-03-25T06:56:44.150Z,34.40
2018-03-25T06:57:44.102Z,33.30
2018-03-25T06:58:44.056Z,30.60
2018-03-25T06:59:44.025Z,31.90
2018-03-25T07:00:43.987Z,34.00
2018-03-25T07:01:43.957Z,31.80
2018-03-25T07:02:43.976Z,31.40
2018-03-25T07:03:43.868Z,30.50
2018-03-25T07:04:43.824Z,30.90
2018-03-25T07:05:43.793Z,32.00
2018-03-25T07:06:43.747Z,31.30
2018-03-25T07:07:43.694Z,30.40
2018-03-25T07:08:43.787Z,31.20
2018-03-25T07:09:43.641Z,29.90
2018-03-25T07:10:43.634Z,30.90
2018-03-25T07:11:43.582Z,31.70
2018-03-25T07:12:43.526Z,31.30
2018-03-25T07:13:43.506Z,32.10
2018-03-25T07:14:43.455Z,32.70
2018-03-25T07:15:43.409Z,30.20
2018-03-25T07:16:43.369Z,31.00
2018-03-25T07:17:43.341Z,31.20
2018-03-25T07:18:43.320Z,30.00
2018-03-25T07:19:43.286Z,30.80
2018-03-25T07:20:43.290Z,32.70
2018-03-25T07:21:43.203Z,31.20
2018-03-25T07:22:43.179Z,29.70
2018-03-25T07:23:43.132Z,30.20
2018-03-25T07:24:43.103Z,29.00
2018-03-25T07:25:43.087Z,28.40
2018-03-25T07:26:43.052Z,29.00
2018-03-25T07:27:43.000Z,29.80
2018-03-25T07:28:43.001Z,32.00
2018-03-25T07:29:42.931Z,30.40
2018-03-25T07:30:42.909Z,29.90
2018-03-25T07:31:42.868Z,29.80
2018-03-25T07:32:42.856Z,29.50
2018-03-25T07:33:42.817Z,28.90
2018-03-25T07:34:42.780Z,28.90
2018-03-25T07:35:42.766Z,29.10
2018-03-25T07:36:42.744Z,28.70
2018-03-25T07:37:42.708Z,28.20
2018-03-25T07:38:42.690Z,28.90
2018-03-25T07:39:42.710Z,29.80
2018-03-25T07:40:42.629Z,29.10
2018-03-25T07:41:42.562Z,29.00
2018-03-25T07:42:42.542Z,30.00
2018-03-25T07:43:42.525Z,28.20
2018-03-25T07:44:44.997Z,29.60
2018-03-25T07:45:42.445Z,28.40
2018-03-25T07:46:42.446Z,29.40
2018-03-25T07:47:42.394Z,30.10
2018-03-25T07:48:42.381Z,28.90
2018-03-25T07:49:42.323Z,30.80
2018-03-25T07:50:42.325Z,29.90
2018-03-25T07:51:42.297Z,29.40
2018-03-25T07:52:42.241Z,30.60
2018-03-25T07:53:42.231Z,28.90
2018-03-25T07:54:42.209Z,29.40
2018-03-25T07:55:42.162Z,29.50
2018-03-25T07:56:42.150Z,28.80
2018-03-25T07:57:42.164Z,29.30
2018-03-25T07:58:42.128Z,29.20
2018-03-25T07:59:42.137Z,28.30
2018-03-25T08:00:42.039Z,29.00
2018-03-25T08:01:42.045Z,30.00
2018-03-25T08:02:41.985Z,29.20
2018-03-25T08:03:41.990Z,29.30
2018-03-25T08:04:41.928Z,29.30
2018-03-25T08:05:41.918Z,28.40
2018-03-25T08:06:41.888Z,27.90
2018-03-25T08:07:41.866Z,28.50
2018-03-25T08:08:41.823Z,28.10
2018-03-25T08:09:41.835Z,28.40
2018-03-25T08:10:41.831Z,28.70
2018-03-25T08:11:41.751Z,28.60
2018-03-25T08:12:41.803Z,27.60
2018-03-25T08:13:41.691Z,28.40
2018-03-25T08:14:41.675Z,29.40
2018-03-25T08:15:41.668Z,29.60
2018-03-25T08:16:41.623Z,29.20
2018-03-25T08:17:41.638Z,28.60
2018-03-25T08:18:41.569Z,28.80
2018-03-25T08:19:41.555Z,29.70
2018-03-25T08:20:41.515Z,29.30
2018-03-25T08:21:41.480Z,29.00
2018-03-25T08:22:41.442Z,27.70
2018-03-25T08:23:41.420Z,27.40
2018-03-25T08:24:41.410Z,26.60
2018-03-25T08:25:41.395Z,27.70
2018-03-25T08:26:41.334Z,27.50
2018-03-25T08:27:41.326Z,28.10
2018-03-25T08:28:41.404Z,27.50
2018-03-25T08:29:41.272Z,28.20
2018-03-25T08:30:41.240Z,27.20
2018-03-25T08:31:41.219Z,25.60
2018-03-25T08:32:41.208Z,25.20
2018-03-25T08:33:41.160Z,25.90
2018-03-25T08:34:41.126Z,25.70
2018-03-25T08:35:41.107Z,25.30
2018-03-25T08:36:41.089Z,24.70
2018-03-25T08:37:41.063Z,24.70
2018-03-25T08:38:41.027Z,24.80
2018-03-25T08:39:41.006Z,24.80
2018-03-25T08:40:40.963Z,24.20
2018-03-25T08:41:40.948Z,24.60
2018-03-25T08:42:40.916Z,24.80
2018-03-25T08:43:40.940Z,24.30
2018-03-25T08:44:40.897Z,25.00
2018-03-25T08:45:40.879Z,24.40
2018-03-25T08:46:40.835Z,24.20
2018-03-25T08:47:40.784Z,24.30
2018-03-25T08:48:40.785Z,24.00
2018-03-25T08:49:40.743Z,24.10
2018-03-25T08:50:40.726Z,23.10
2018-03-25T08:51:40.697Z,23.10
2018-03-25T08:52:40.654Z,23.20
2018-03-25T08:53:40.632Z,23.50
2018-03-25T08:54:40.611Z,23.20
2018-03-25T08:55:40.646Z,24.10
2018-03-25T08:56:40.561Z,24.20
2018-03-25T08:57:40.533Z,23.50
2018-03-25T08:58:40.521Z,24.60
2018-03-25T08:59:40.466Z,24.30
2018-03-25T09:00:40.477Z,24.10
2018-03-25T09:01:40.473Z,24.10
2018-03-25T09:02:40.409Z,24.00
2018-03-25T09:03:40.384Z,24.50
2018-03-25T09:04:40.336Z,23.90
2018-03-25T09:05:40.344Z,23.00
2018-03-25T09:06:40.286Z,24.00
2018-03-25T09:07:40.267Z,23.90
2018-03-25T09:08:40.235Z,24.30
2018-03-25T09:09:40.283Z,23.80
2018-03-25T09:10:40.200Z,24.30
2018-03-25T09:11:40.197Z,24.60
2018-03-25T09:12:40.133Z,24.00
2018-03-25T09:13:40.107Z,23.70
2018-03-25T09:14:40.098Z,23.90
2018-03-25T09:15:40.072Z,24.80
2018-03-25T09:16:40.056Z,24.60
2018-03-25T09:17:40.101Z,23.70
2018-03-25T09:18:40.039Z,24.30
2018-03-25T09:19:39.987Z,25.00
2018-03-25T09:20:39.962Z,23.70
2018-03-25T09:21:39.926Z,24.20
2018-03-25T09:22:39.888Z,25.70
2018-03-25T09:23:39.879Z,24.40
2018-03-25T09:24:39.852Z,24.40
2018-03-25T09:25:39.866Z,24.40
2018-03-25T09:26:39.800Z,24.40
2018-03-25T09:27:39.792Z,24.80
2018-03-25T09:28:39.771Z,24.90
2018-03-25T09:29:39.761Z,24.20
2018-03-25T09:30:39.759Z,24.70
2018-03-25T09:31:39.693Z,24.20
2018-03-25T09:32:39.672Z,24.40
2018-03-25T09:33:39.638Z,24.30
2018-03-25T09:34:39.638Z,23.80
2018-03-25T09:35:39.604Z,25.30
2018-03-25T09:36:39.576Z,23.80
2018-03-25T09:37:39.546Z,24.30
2018-03-25T09:38:39.537Z,24.40
2018-03-25T09:39:39.496Z,24.20
2018-03-25T09:40:39.477Z,23.70
2018-03-25T09:41:39.488Z,24.60
2018-03-25T09:42:39.532Z,24.90
2018-03-25T09:43:39.406Z,23.90
2018-03-25T09:44:39.384Z,24.30
2018-03-25T09:45:39.397Z,25.40
2018-03-25T09:46:39.349Z,23.70
2018-03-25T09:47:39.327Z,24.40
2018-03-25T09:48:39.287Z,23.90
2018-03-25T09:49:39.275Z,23.00
2018-03-25T09:50:39.270Z,23.30
2018-03-25T09:51:39.250Z,24.50
2018-03-25T09:52:39.248Z,22.80
2018-03-25T09:53:39.190Z,23.70
2018-03-25T09:54:39.164Z,23.10
2018-03-25T09:55:39.139Z,24.00
2018-03-25T09:56:39.144Z,24.00
2018-03-25T09:57:39.094Z,24.40
2018-03-25T09:58:39.083Z,24.10
2018-03-25T09:59:39.042Z,24.00
2018-03-25T10:00:39.028Z,23.90
2018-03-25T10:01:39.017Z,25.20
2018-03-25T10:02:38.986Z,23.50
2018-03-25T10:03:38.959Z,24.70
2018-03-25T10:04:38.947Z,24.00
2018-03-25T10:05:39.114Z,24.00
2018-03-25T10:06:38.922Z,24.10
2018-03-25T10:07:38.877Z,23.70
2018-03-25T10:08:38.863Z,23.80
2018-03-25T10:09:38.845Z,22.70
2018-03-25T10:10:38.796Z,22.80
2018-03-25T10:11:38.825Z,22.60
2018-03-25T10:12:38.782Z,23.10
2018-03-25T10:13:38.741Z,22.90
2018-03-25T10:14:38.724Z,23.20
2018-03-25T10:15:38.717Z,23.60
2018-03-25T10:16:38.670Z,22.40
2018-03-25T10:17:38.647Z,23.00
2018-03-25T10:18:38.619Z,23.00
2018-03-25T10:19:38.594Z,22.20
2018-03-25T10:20:38.579Z,22.40
2018-03-25T10:21:38.552Z,23.10
2018-03-25T10:22:38.528Z,23.50
2018-03-25T10:23:38.521Z,23.20
2018-03-25T10:24:38.512Z,22.80
2018-03-25T10:25:38.471Z,22.90
2018-03-25T10:26:38.444Z,22.80
2018-03-25T10:27:38.417Z,23.30
2018-03-25T10:28:38.391Z,23.30
2018-03-25T10:29:38.371Z,23.60
2018-03-25T10:30:38.353Z,23.50
2018-03-25T10:31:38.331Z,23.20
2018-03-25T10:32:38.302Z,23.10
2018-03-25T10:33:38.273Z,22.10
2018-03-25T10:34:38.272Z,22.20
2018-03-25T10:35:38.245Z,22.00
2018-03-25T10:36:38.226Z,23.70
2018-03-25T10:37:38.189Z,23.00
2018-03-25T10:38:38.156Z,21.90
2018-03-25T10:39:38.159Z,22.90
2018-03-25T10:40:38.116Z,22.60
2018-03-25T10:41:38.109Z,23.80
2018-03-25T10:42:38.085Z,22.30
2018-03-25T10:43:38.078Z,20.90
2018-03-25T10:44:38.023Z,23.70
2018-03-25T10:45:38.025Z,21.80
2018-03-25T10:46:37.984Z,22.10
2018-03-25T10:47:37.984Z,22.30
2018-03-25T10:48:37.915Z,22.60
2018-03-25T10:49:37.923Z,22.40
2018-03-25T10:50:37.896Z,21.80
2018-03-25T10:51:37.859Z,22.50
2018-03-25T10:52:37.871Z,23.30
2018-03-25T10:53:37.815Z,22.20
2018-03-25T10:54:37.797Z,23.20
2018-03-25T10:55:37.759Z,22.30
2018-03-25T10:56:37.751Z,22.90
2018-03-25T10:57:37.734Z,22.00
2018-03-25T10:58:37.722Z,21.30
2018-03-25T10:59:37.699Z,22.20
2018-03-25T11:00:37.649Z,21.40
2018-03-25T11:01:37.655Z,22.30
2018-03-25T11:02:37.598Z,22.00
2018-03-25T11:03:37.571Z,21.60
2018-03-25T11:04:37.562Z,21.30
2018-03-25T11:05:37.546Z,22.40
2018-03-25T11:06:37.493Z,21.80
2018-03-25T11:07:37.445Z,21.60
2018-03-25T11:08:37.488Z,22.00
2018-03-25T11:09:37.456Z,21.80
2018-03-25T11:10:37.430Z,23.30
2018-03-25T11:11:37.368Z,23.20
2018-03-25T11:12:37.329Z,23.50
2018-03-25T11:13:37.320Z,22.30
2018-03-25T11:14:37.294Z,23.00
2018-03-25T11:15:37.285Z,22.30
2018-03-25T11:16:37.265Z,21.20
2018-03-25T11:17:37.277Z,22.90
2018-03-25T11:18:37.196Z,22.30
2018-03-25T11:19:37.156Z,21.30
2018-03-25T11:20:37.168Z,23.40
2018-03-25T11:21:37.114Z,22.20
2018-03-25T11:22:37.087Z,22.80
2018-03-25T11:23:37.075Z,22.00
2018-03-25T11:24:37.115Z,20.80
2018-03-25T11:25:37.013Z,20.60
2018-03-25T11:26:37.053Z,20.90
2018-03-25T11:27:37.000Z,20.90
2018-03-25T11:28:36.957Z,20.80
2018-03-25T11:29:36.919Z,20.80
2018-03-25T11:30:36.898Z,20.50
2018-03-25T11:31:36.875Z,20.80
2018-03-25T11:32:36.873Z,20.20
2018-03-25T11:33:36.837Z,19.80
2018-03-25T11:34:36.823Z,19.50
2018-03-25T11:35:36.777Z,20.20
2018-03-25T11:36:36.782Z,20.20
2018-03-25T11:37:36.734Z,21.10
2018-03-25T11:38:36.685Z,20.70
2018-03-25T11:39:36.703Z,19.90
2018-03-25T11:40:36.659Z,20.20
2018-03-25T11:41:36.663Z,20.20
2018-03-25T11:42:36.601Z,20.70
2018-03-25T11:43:36.573Z,20.50
2018-03-25T11:44:36.555Z,21.00
2018-03-25T11:45:36.528Z,20.40
2018-03-25T11:46:36.542Z,20.50
2018-03-25T11:47:36.497Z,21.00
2018-03-25T11:48:36.446Z,20.60
2018-03-25T11:49:36.503Z,21.00
2018-03-25T11:50:36.398Z,20.60
2018-03-25T11:51:36.383Z,19.30
2018-03-25T11:52:36.360Z,20.20
2018-03-25T11:53:36.346Z,20.40
2018-03-25T11:54:36.314Z,20.60
2018-03-25T11:55:36.279Z,20.00
2018-03-25T11:56:36.265Z,20.70
2018-03-25T11:57:36.240Z,20.80
2018-03-25T11:58:36.208Z,21.80
2018-03-25T11:59:36.218Z,21.60
2018-03-25T12:00:36.194Z,20.90
2018-03-25T12:01:36.154Z,22.60
2018-03-25T12:02:36.160Z,21.90
2018-03-25T12:03:36.096Z,20.90
2018-03-25T12:04:36.075Z,21.10
2018-03-25T12:05:36.031Z,19.60
2018-03-25T12:06:36.014Z,19.70
2018-03-25T12:07:36.006Z,19.60
2018-03-25T12:08:35.970Z,20.40
2018-03-25T12:09:35.948Z,20.30
2018-03-25T12:10:35.965Z,19.50
2018-03-25T12:11:35.918Z,20.00
2018-03-25T12:12:35.898Z,20.40
2018-03-25T12:13:35.868Z,19.60
2018-03-25T12:14:35.827Z,19.50
2018-03-25T12:15:35.798Z,19.10
2018-03-25T12:16:35.773Z,18.70
2018-03-25T12:17:35.771Z,19.50
2018-03-25T12:18:35.759Z,20.20
2018-03-25T12:19:35.756Z,19.70
2018-03-25T12:20:35.660Z,18.90
2018-03-25T12:21:35.633Z,19.70
2018-03-25T12:22:35.654Z,19.20
2018-03-25T12:23:35.590Z,19.00
2018-03-25T12:24:35.577Z,19.30
2018-03-25T12:25:35.548Z,19.60
2018-03-25T12:26:35.539Z,19.60
2018-03-25T12:27:35.494Z,19.70
2018-03-25T12:28:35.482Z,19.30
2018-03-25T12:29:35.483Z,18.20
2018-03-25T12:30:35.424Z,19.20
2018-03-25T12:31:35.399Z,17.70
2018-03-25T12:32:35.476Z,18.60
2018-03-25T12:33:35.469Z,19.00
2018-03-25T12:34:35.328Z,19.30
2018-03-25T12:35:35.324Z,18.70
2018-03-25T12:36:35.281Z,18.00
2018-03-25T12:37:35.251Z,18.80
2018-03-25T12:38:35.247Z,18.30
2018-03-25T12:39:35.186Z,18.70
2018-03-25T12:40:35.166Z,19.70
2018-03-25T12:41:35.168Z,18.80
2018-03-25T12:42:35.147Z,18.40
2018-03-25T12:43:35.098Z,18.80
2018-03-25T12:44:35.076Z,19.80
2018-03-25T12:45:35.028Z,19.80
2018-03-25T12:46:35.029Z,19.20
2018-03-25T12:47:35.015Z,18.50
2018-03-25T12:48:34.954Z,19.10
2018-03-25T12:49:34.921Z,18.80
2018-03-25T12:50:34.896Z,18.20
2018-03-25T12:51:34.877Z,18.70